Terminal Aerodrome Forecast
Issued by NWS

Home | Current Version | Previous Version | Text Only | Print | Product List | Glossary On
Versions: 1 2 3 4 5 6 7 8 9 10 11 12 13 14 15 16 17
164
FTUS45 KABQ 220722 AAA
TAFAEG
TAF AMD
KAEG 220722Z 2207/2306 15012G19KT P6SM VCSH SCT040 BKN060
      TEMPO 2207/2209 -SHSN SCT015 OVC035
     FM221000 14007KT P6SM SCT035 BKN060
     FM221500 17010G18KT P6SM SCT045 SCT070
     FM221800 23016G26KT P6SM SCT080
     FM230100 27012KT P6SM SCT090
      AMD NOT SKED=

USA.gov is the U.S. government's official web portal to all federal, state and local government web resources and services.